sensor_id;sensor_type;location;lat;lon;timestamp;P1;durP1;ratioP1;P2;durP2;ratioP2
5060;SDS011;2549;52.128;21.068;2023-06-19T00:01:07;11.83;;;6.83;;
5060;SDS011;2549;52.128;21.068;2023-06-19T00:03:34;8.57;;;6.30;;
5060;SDS011;2549;52.128;21.068;2023-06-19T00:06:01;7.70;;;6.30;;
5060;SDS011;2549;52.128;21.068;2023-06-19T00:08:28;13.97;;;6.83;;
5060;SDS011;2549;52.128;21.068;2023-06-19T00:10:55;7.40;;;6.70;;
5060;SDS011;2549;52.128;21.068;2023-06-19T00:13:22;10.20;;;7.40;;
5060;SDS011;2549;52.128;21.068;2023-06-19T00:15:49;14.07;;;6.50;;
5060;SDS011;2549;52.128;21.068;2023-06-19T00:18:16;8.50;;;6.53;;
5060;SDS011;2549;52.128;21.068;2023-06-19T00:20:44;10.93;;;6.30;;
5060;SDS011;2549;52.128;21.068;2023-06-19T00:23:12;6.03;;;5.53;;
5060;SDS011;2549;52.128;21.068;2023-06-19T00:25:40;7.77;;;6.93;;
5060;SDS011;2549;52.128;21.068;2023-06-19T00:28:09;9.47;;;6.07;;
5060;SDS011;2549;52.128;21.068;2023-06-19T00:30:39;6.80;;;6.20;;
5060;SDS011;2549;52.128;21.068;2023-06-19T00:33:07;10.50;;;6.23;;
5060;SDS011;2549;52.128;21.068;2023-06-19T00:35:34;10.30;;;6.47;;
5060;SDS011;2549;52.128;21.068;2023-06-19T00:38:01;7.77;;;6.40;;
5060;SDS011;2549;52.128;21.068;2023-06-19T00:40:29;10.47;;;6.87;;
5060;SDS011;2549;52.128;21.068;2023-06-19T00:42:57;14.43;;;6.80;;
5060;SDS011;2549;52.128;21.068;2023-06-19T00:45:25;9.93;;;6.40;;
5060;SDS011;2549;52.128;21.068;2023-06-19T00:47:52;8.90;;;6.57;;
5060;SDS011;2549;52.128;21.068;2023-06-19T00:50:23;7.13;;;6.43;;
5060;SDS011;2549;52.128;21.068;2023-06-19T00:52:51;8.10;;;7.30;;
5060;SDS011;2549;52.128;21.068;2023-06-19T00:55:18;8.40;;;6.33;;
5060;SDS011;2549;52.128;21.068;2023-06-19T00:57:45;10.33;;;6.20;;
5060;SDS011;2549;52.128;21.068;2023-06-19T01:00:13;8.97;;;7.70;;
5060;SDS011;2549;52.128;21.068;2023-06-19T01:02:40;8.27;;;5.87;;
5060;SDS011;2549;52.128;21.068;2023-06-19T01:05:07;7.33;;;6.10;;
5060;SDS011;2549;52.128;21.068;2023-06-19T01:10:28;7.43;;;6.67;;
5060;SDS011;2549;52.128;21.068;2023-06-19T01:13:04;6.27;;;5.67;;
5060;SDS011;2549;52.128;21.068;2023-06-19T01:15:35;7.50;;;5.33;;
5060;SDS011;2549;52.128;21.068;2023-06-19T01:18:02;7.90;;;5.90;;
5060;SDS011;2549;52.128;21.068;2023-06-19T01:20:30;10.80;;;5.80;;
5060;SDS011;2549;52.128;21.068;2023-06-19T01:23:04;7.30;;;6.13;;
5060;SDS011;2549;52.128;21.068;2023-06-19T01:25:33;10.63;;;6.23;;
5060;SDS011;2549;52.128;21.068;2023-06-19T01:27:59;12.53;;;6.33;;
5060;SDS011;2549;52.128;21.068;2023-06-19T01:30:26;9.73;;;6.13;;
5060;SDS011;2549;52.128;21.068;2023-06-19T01:32:55;6.20;;;5.50;;
5060;SDS011;2549;52.128;21.068;2023-06-19T01:35:30;6.43;;;5.83;;
5060;SDS011;2549;52.128;21.068;2023-06-19T01:38:00;5.80;;;5.20;;
5060;SDS011;2549;52.128;21.068;2023-06-19T01:40:28;8.60;;;5.50;;
5060;SDS011;2549;52.128;21.068;2023-06-19T01:42:58;6.23;;;5.63;;
5060;SDS011;2549;52.128;21.068;2023-06-19T01:45:28;7.90;;;5.30;;
5060;SDS011;2549;52.128;21.068;2023-06-19T01:47:55;8.50;;;6.00;;
5060;SDS011;2549;52.128;21.068;2023-06-19T01:50:23;7.77;;;5.83;;
5060;SDS011;2549;52.128;21.068;2023-06-19T01:52:51;9.23;;;5.10;;
5060;SDS011;2549;52.128;21.068;2023-06-19T01:55:18;5.93;;;5.33;;
5060;SDS011;2549;52.128;21.068;2023-06-19T01:57:45;8.73;;;5.43;;
5060;SDS011;2549;52.128;21.068;2023-06-19T02:00:13;11.80;;;6.80;;
5060;SDS011;2549;52.128;21.068;2023-06-19T02:02:40;11.40;;;5.97;;
5060;SDS011;2549;52.128;21.068;2023-06-19T02:05:07;7.93;;;5.10;;
5060;SDS011;2549;52.128;21.068;2023-06-19T02:07:34;6.80;;;5.43;;
5060;SDS011;2549;52.128;21.068;2023-06-19T02:10:01;5.57;;;5.07;;
5060;SDS011;2549;52.128;21.068;2023-06-19T02:12:29;9.83;;;5.13;;
5060;SDS011;2549;52.128;21.068;2023-06-19T02:14:56;10.43;;;5.17;;
5060;SDS011;2549;52.128;21.068;2023-06-19T02:17:23;7.83;;;6.13;;
5060;SDS011;2549;52.128;21.068;2023-06-19T02:19:50;8.40;;;6.10;;
5060;SDS011;2549;52.128;21.068;2023-06-19T02:22:17;8.07;;;5.83;;
5060;SDS011;2549;52.128;21.068;2023-06-19T02:24:44;7.60;;;5.97;;
5060;SDS011;2549;52.128;21.068;2023-06-19T02:27:11;6.80;;;6.07;;
5060;SDS011;2549;52.128;21.068;2023-06-19T02:29:38;11.63;;;5.67;;
5060;SDS011;2549;52.128;21.068;2023-06-19T02:32:05;10.40;;;5.13;;
5060;SDS011;2549;52.128;21.068;2023-06-19T02:34:32;7.43;;;5.20;;
5060;SDS011;2549;52.128;21.068;2023-06-19T02:36:59;11.37;;;5.50;;
5060;SDS011;2549;52.128;21.068;2023-06-19T02:39:26;6.70;;;6.07;;
5060;SDS011;2549;52.128;21.068;2023-06-19T02:41:53;7.43;;;5.50;;
5060;SDS011;2549;52.128;21.068;2023-06-19T02:44:20;6.37;;;5.77;;
5060;SDS011;2549;52.128;21.068;2023-06-19T02:46:47;5.87;;;5.30;;
5060;SDS011;2549;52.128;21.068;2023-06-19T02:49:14;6.43;;;5.83;;
5060;SDS011;2549;52.128;21.068;2023-06-19T02:51:41;7.57;;;5.60;;
5060;SDS011;2549;52.128;21.068;2023-06-19T02:54:08;6.50;;;5.90;;
5060;SDS011;2549;52.128;21.068;2023-06-19T02:56:35;7.93;;;5.53;;
5060;SDS011;2549;52.128;21.068;2023-06-19T02:59:02;7.83;;;5.63;;
5060;SDS011;2549;52.128;21.068;2023-06-19T03:01:29;5.67;;;5.17;;
5060;SDS011;2549;52.128;21.068;2023-06-19T03:03:56;6.23;;;5.73;;
5060;SDS011;2549;52.128;21.068;2023-06-19T03:06:23;13.10;;;6.80;;
5060;SDS011;2549;52.128;21.068;2023-06-19T03:08:50;9.10;;;6.03;;
5060;SDS011;2549;52.128;21.068;2023-06-19T03:11:17;6.13;;;5.53;;
5060;SDS011;2549;52.128;21.068;2023-06-19T03:13:49;6.53;;;5.63;;
5060;SDS011;2549;52.128;21.068;2023-06-19T03:16:18;14.23;;;6.87;;
5060;SDS011;2549;52.128;21.068;2023-06-19T03:18:46;6.13;;;5.53;;
5060;SDS011;2549;52.128;21.068;2023-06-19T03:21:17;7.37;;;6.50;;
5060;SDS011;2549;52.128;21.068;2023-06-19T03:23:48;7.17;;;6.47;;
5060;SDS011;2549;52.128;21.068;2023-06-19T03:26:15;12.90;;;6.53;;
5060;SDS011;2549;52.128;21.068;2023-06-19T03:28:42;7.53;;;6.50;;
5060;SDS011;2549;52.128;21.068;2023-06-19T03:31:09;10.13;;;6.27;;
5060;SDS011;2549;52.128;21.068;2023-06-19T03:33:35;6.60;;;6.00;;
5060;SDS011;2549;52.128;21.068;2023-06-19T03:36:02;9.60;;;7.20;;
5060;SDS011;2549;52.128;21.068;2023-06-19T03:38:29;13.00;;;7.43;;
5060;SDS011;2549;52.128;21.068;2023-06-19T03:40:56;12.50;;;7.10;;
5060;SDS011;2549;52.128;21.068;2023-06-19T03:43:23;7.90;;;6.77;;
5060;SDS011;2549;52.128;21.068;2023-06-19T03:45:50;7.83;;;7.03;;
5060;SDS011;2549;52.128;21.068;2023-06-19T03:48:17;11.00;;;7.27;;
5060;SDS011;2549;52.128;21.068;2023-06-19T03:50:44;8.70;;;6.90;;
5060;SDS011;2549;52.128;21.068;2023-06-19T03:53:11;8.40;;;7.43;;
5060;SDS011;2549;52.128;21.068;2023-06-19T03:55:38;9.70;;;6.60;;
5060;SDS011;2549;52.128;21.068;2023-06-19T03:58:05;6.90;;;6.20;;
5060;SDS011;2549;52.128;21.068;2023-06-19T04:00:32;7.00;;;6.30;;
5060;SDS011;2549;52.128;21.068;2023-06-19T04:02:59;6.80;;;6.20;;
5060;SDS011;2549;52.128;21.068;2023-06-19T04:05:26;7.60;;;6.90;;
5060;SDS011;2549;52.128;21.068;2023-06-19T04:07:53;6.97;;;6.30;;
5060;SDS011;2549;52.128;21.068;2023-06-19T04:10:20;8.00;;;7.03;;
5060;SDS011;2549;52.128;21.068;2023-06-19T04:12:47;9.77;;;7.43;;
5060;SDS011;2549;52.128;21.068;2023-06-19T04:15:14;7.90;;;7.20;;
5060;SDS011;2549;52.128;21.068;2023-06-19T04:17:41;7.50;;;6.33;;
5060;SDS011;2549;52.128;21.068;2023-06-19T04:20:08;7.30;;;6.33;;
5060;SDS011;2549;52.128;21.068;2023-06-19T04:22:41;9.67;;;7.03;;
5060;SDS011;2549;52.128;21.068;2023-06-19T04:25:08;9.03;;;6.70;;
5060;SDS011;2549;52.128;21.068;2023-06-19T04:27:40;12.83;;;6.50;;
5060;SDS011;2549;52.128;21.068;2023-06-19T04:30:07;9.70;;;7.13;;
5060;SDS011;2549;52.128;21.068;2023-06-19T04:32:34;9.30;;;8.13;;
5060;SDS011;2549;52.128;21.068;2023-06-19T04:35:02;7.13;;;6.43;;
5060;SDS011;2549;52.128;21.068;2023-06-19T04:37:29;6.30;;;5.70;;
5060;SDS011;2549;52.128;21.068;2023-06-19T04:39:56;13.93;;;6.50;;
5060;SDS011;2549;52.128;21.068;2023-06-19T04:42:24;7.60;;;6.90;;
5060;SDS011;2549;52.128;21.068;2023-06-19T04:44:52;7.13;;;6.53;;
5060;SDS011;2549;52.128;21.068;2023-06-19T04:47:21;7.10;;;6.50;;
5060;SDS011;2549;52.128;21.068;2023-06-19T04:50:01;6.47;;;5.70;;
5060;SDS011;2549;52.128;21.068;2023-06-19T04:52:29;6.63;;;6.03;;
5060;SDS011;2549;52.128;21.068;2023-06-19T04:54:59;7.97;;;7.27;;
5060;SDS011;2549;52.128;21.068;2023-06-19T04:57:26;6.07;;;5.57;;
5060;SDS011;2549;52.128;21.068;2023-06-19T04:59:53;8.67;;;7.40;;
5060;SDS011;2549;52.128;21.068;2023-06-19T05:02:20;8.37;;;6.03;;
5060;SDS011;2549;52.128;21.068;2023-06-19T05:04:47;7.00;;;6.30;;
5060;SDS011;2549;52.128;21.068;2023-06-19T05:07:14;6.43;;;5.80;;
5060;SDS011;2549;52.128;21.068;2023-06-19T05:09:41;7.33;;;6.70;;
5060;SDS011;2549;52.128;21.068;2023-06-19T05:12:09;7.43;;;6.70;;
5060;SDS011;2549;52.128;21.068;2023-06-19T05:14:37;8.07;;;6.70;;
5060;SDS011;2549;52.128;21.068;2023-06-19T05:17:04;12.10;;;7.50;;
5060;SDS011;2549;52.128;21.068;2023-06-19T05:19:32;8.13;;;7.40;;
5060;SDS011;2549;52.128;21.068;2023-06-19T05:21:59;9.30;;;6.10;;
5060;SDS011;2549;52.128;21.068;2023-06-19T05:24:26;6.23;;;5.73;;
5060;SDS011;2549;52.128;21.068;2023-06-19T05:26:53;7.80;;;5.60;;
5060;SDS011;2549;52.128;21.068;2023-06-19T05:29:20;6.77;;;6.00;;
5060;SDS011;2549;52.128;21.068;2023-06-19T05:31:46;7.53;;;6.23;;
5060;SDS011;2549;52.128;21.068;2023-06-19T05:34:14;6.20;;;5.63;;
5060;SDS011;2549;52.128;21.068;2023-06-19T05:36:41;9.27;;;5.80;;
5060;SDS011;2549;52.128;21.068;2023-06-19T05:39:08;6.77;;;6.17;;
5060;SDS011;2549;52.128;21.068;2023-06-19T05:41:35;6.97;;;6.20;;
5060;SDS011;2549;52.128;21.068;2023-06-19T05:44:02;7.00;;;6.30;;
5060;SDS011;2549;52.128;21.068;2023-06-19T05:46:29;6.47;;;5.87;;
5060;SDS011;2549;52.128;21.068;2023-06-19T05:48:56;7.07;;;6.47;;
5060;SDS011;2549;52.128;21.068;2023-06-19T05:51:23;7.03;;;6.43;;
5060;SDS011;2549;52.128;21.068;2023-06-19T05:53:50;6.70;;;6.10;;
5060;SDS011;2549;52.128;21.068;2023-06-19T05:56:18;5.80;;;5.30;;
5060;SDS011;2549;52.128;21.068;2023-06-19T05:58:45;7.57;;;6.90;;
5060;SDS011;2549;52.128;21.068;2023-06-19T06:01:12;5.80;;;5.30;;
5060;SDS011;2549;52.128;21.068;2023-06-19T06:03:39;7.30;;;5.80;;
5060;SDS011;2549;52.128;21.068;2023-06-19T06:06:05;7.43;;;6.33;;
5060;SDS011;2549;52.128;21.068;2023-06-19T06:08:32;6.60;;;6.00;;
5060;SDS011;2549;52.128;21.068;2023-06-19T06:10:59;6.57;;;5.97;;
5060;SDS011;2549;52.128;21.068;2023-06-19T06:13:26;6.40;;;5.80;;
5060;SDS011;2549;52.128;21.068;2023-06-19T06:15:54;6.93;;;6.30;;
5060;SDS011;2549;52.128;21.068;2023-06-19T06:18:20;7.03;;;5.93;;
5060;SDS011;2549;52.128;21.068;2023-06-19T06:20:48;7.17;;;5.90;;
5060;SDS011;2549;52.128;21.068;2023-06-19T06:23:15;5.40;;;5.00;;
5060;SDS011;2549;52.128;21.068;2023-06-19T06:25:41;5.17;;;4.77;;
5060;SDS011;2549;52.128;21.068;2023-06-19T06:28:08;4.70;;;4.40;;
5060;SDS011;2549;52.128;21.068;2023-06-19T06:30:35;6.10;;;5.50;;
5060;SDS011;2549;52.128;21.068;2023-06-19T06:33:02;5.73;;;5.33;;
5060;SDS011;2549;52.128;21.068;2023-06-19T06:35:30;6.53;;;5.60;;
5060;SDS011;2549;52.128;21.068;2023-06-19T06:37:57;5.57;;;5.07;;
5060;SDS011;2549;52.128;21.068;2023-06-19T06:40:24;7.83;;;5.43;;
5060;SDS011;2549;52.128;21.068;2023-06-19T06:42:51;5.43;;;4.90;;
5060;SDS011;2549;52.128;21.068;2023-06-19T06:45:19;7.00;;;5.90;;
5060;SDS011;2549;52.128;21.068;2023-06-19T06:47:46;6.43;;;5.90;;
5060;SDS011;2549;52.128;21.068;2023-06-19T06:50:13;5.47;;;4.97;;
5060;SDS011;2549;52.128;21.068;2023-06-19T06:52:40;8.30;;;5.53;;
5060;SDS011;2549;52.128;21.068;2023-06-19T06:55:07;7.20;;;5.30;;
5060;SDS011;2549;52.128;21.068;2023-06-19T06:57:34;7.47;;;5.80;;
5060;SDS011;2549;52.128;21.068;2023-06-19T07:00:02;6.07;;;5.57;;
5060;SDS011;2549;52.128;21.068;2023-06-19T07:02:30;5.77;;;5.17;;
5060;SDS011;2549;52.128;21.068;2023-06-19T07:04:57;12.43;;;5.53;;
5060;SDS011;2549;52.128;21.068;2023-06-19T07:07:24;7.37;;;6.17;;
5060;SDS011;2549;52.128;21.068;2023-06-19T07:09:51;5.27;;;4.77;;
5060;SDS011;2549;52.128;21.068;2023-06-19T07:12:18;86.37;;;8.70;;
5060;SDS011;2549;52.128;21.068;2023-06-19T07:14:45;5.80;;;5.30;;
5060;SDS011;2549;52.128;21.068;2023-06-19T07:17:12;6.47;;;5.83;;
5060;SDS011;2549;52.128;21.068;2023-06-19T07:19:39;6.63;;;5.23;;
5060;SDS011;2549;52.128;21.068;2023-06-19T07:22:06;5.10;;;4.70;;
5060;SDS011;2549;52.128;21.068;2023-06-19T07:24:33;9.07;;;6.20;;
5060;SDS011;2549;52.128;21.068;2023-06-19T07:26:59;5.20;;;4.80;;
5060;SDS011;2549;52.128;21.068;2023-06-19T07:29:26;6.20;;;5.60;;
5060;SDS011;2549;52.128;21.068;2023-06-19T07:31:53;6.23;;;5.70;;
5060;SDS011;2549;52.128;21.068;2023-06-19T07:34:20;5.33;;;4.80;;
5060;SDS011;2549;52.128;21.068;2023-06-19T07:36:47;5.43;;;4.93;;
5060;SDS011;2549;52.128;21.068;2023-06-19T07:39:14;9.63;;;6.10;;
5060;SDS011;2549;52.128;21.068;2023-06-19T07:41:41;5.17;;;4.77;;
5060;SDS011;2549;52.128;21.068;2023-06-19T07:44:08;6.37;;;5.77;;
5060;SDS011;2549;52.128;21.068;2023-06-19T07:46:35;5.83;;;4.80;;
5060;SDS011;2549;52.128;21.068;2023-06-19T07:49:02;5.10;;;4.80;;
5060;SDS011;2549;52.128;21.068;2023-06-19T07:51:29;6.27;;;5.23;;
5060;SDS011;2549;52.128;21.068;2023-06-19T07:53:57;5.90;;;4.63;;
5060;SDS011;2549;52.128;21.068;2023-06-19T07:56:24;5.70;;;5.23;;
5060;SDS011;2549;52.128;21.068;2023-06-19T07:58:51;5.10;;;4.70;;
5060;SDS011;2549;52.128;21.068;2023-06-19T08:01:17;6.10;;;5.50;;
5060;SDS011;2549;52.128;21.068;2023-06-19T08:03:45;6.00;;;5.50;;
5060;SDS011;2549;52.128;21.068;2023-06-19T08:06:12;6.33;;;5.77;;
5060;SDS011;2549;52.128;21.068;2023-06-19T08:08:39;5.57;;;5.10;;
5060;SDS011;2549;52.128;21.068;2023-06-19T08:11:06;5.03;;;4.53;;
5060;SDS011;2549;52.128;21.068;2023-06-19T08:13:33;7.20;;;5.37;;
5060;SDS011;2549;52.128;21.068;2023-06-19T08:15:59;5.20;;;4.80;;
5060;SDS011;2549;52.128;21.068;2023-06-19T08:18:27;5.30;;;4.83;;
5060;SDS011;2549;52.128;21.068;2023-06-19T08:20:54;5.70;;;5.20;;
5060;SDS011;2549;52.128;21.068;2023-06-19T08:23:21;5.50;;;5.10;;
5060;SDS011;2549;52.128;21.068;2023-06-19T08:25:48;5.80;;;5.30;;
5060;SDS011;2549;52.128;21.068;2023-06-19T08:28:14;5.80;;;5.30;;
5060;SDS011;2549;52.128;21.068;2023-06-19T08:30:41;5.70;;;5.30;;
5060;SDS011;2549;52.128;21.068;2023-06-19T08:33:08;5.47;;;5.00;;
5060;SDS011;2549;52.128;21.068;2023-06-19T08:35:35;6.53;;;5.93;;
5060;SDS011;2549;52.128;21.068;2023-06-19T08:38:02;6.73;;;5.97;;
5060;SDS011;2549;52.128;21.068;2023-06-19T08:40:28;5.40;;;4.90;;
5060;SDS011;2549;52.128;21.068;2023-06-19T08:42:55;7.07;;;5.87;;
5060;SDS011;2549;52.128;21.068;2023-06-19T08:45:22;5.60;;;5.20;;
5060;SDS011;2549;52.128;21.068;2023-06-19T08:47:49;7.13;;;5.00;;
5060;SDS011;2549;52.128;21.068;2023-06-19T08:50:24;7.80;;;5.57;;
5060;SDS011;2549;52.128;21.068;2023-06-19T08:52:52;6.17;;;5.60;;
5060;SDS011;2549;52.128;21.068;2023-06-19T08:55:20;6.93;;;6.10;;
5060;SDS011;2549;52.128;21.068;2023-06-19T08:57:48;6.40;;;5.90;;
5060;SDS011;2549;52.128;21.068;2023-06-19T09:00:22;5.77;;;5.27;;
5060;SDS011;2549;52.128;21.068;2023-06-19T09:02:59;5.20;;;4.73;;
5060;SDS011;2549;52.128;21.068;2023-06-19T09:05:40;5.03;;;4.60;;
5060;SDS011;2549;52.128;21.068;2023-06-19T09:08:13;4.17;;;3.87;;
5060;SDS011;2549;52.128;21.068;2023-06-19T09:10:42;3.97;;;3.67;;
5060;SDS011;2549;52.128;21.068;2023-06-19T09:13:09;5.57;;;5.10;;
5060;SDS011;2549;52.128;21.068;2023-06-19T09:15:37;4.40;;;4.00;;
5060;SDS011;2549;52.128;21.068;2023-06-19T09:18:05;4.40;;;4.00;;
5060;SDS011;2549;52.128;21.068;2023-06-19T09:20:35;4.03;;;3.73;;
5060;SDS011;2549;52.128;21.068;2023-06-19T09:23:11;3.80;;;3.60;;
5060;SDS011;2549;52.128;21.068;2023-06-19T09:25:45;4.00;;;3.70;;
5060;SDS011;2549;52.128;21.068;2023-06-19T09:28:23;4.00;;;3.70;;
5060;SDS011;2549;52.128;21.068;2023-06-19T09:30:56;7.53;;;3.87;;
5060;SDS011;2549;52.128;21.068;2023-06-19T09:33:29;3.23;;;3.13;;
5060;SDS011;2549;52.128;21.068;2023-06-19T09:35:57;3.30;;;3.10;;
5060;SDS011;2549;52.128;21.068;2023-06-19T09:38:29;3.77;;;3.57;;
5060;SDS011;2549;52.128;21.068;2023-06-19T09:41:00;3.33;;;3.13;;
5060;SDS011;2549;52.128;21.068;2023-06-19T09:43:38;3.30;;;3.00;;
5060;SDS011;2549;52.128;21.068;2023-06-19T09:46:06;3.93;;;3.60;;
5060;SDS011;2549;52.128;21.068;2023-06-19T09:48:34;5.10;;;3.83;;
5060;SDS011;2549;52.128;21.068;2023-06-19T09:51:20;3.57;;;3.37;;
5060;SDS011;2549;52.128;21.068;2023-06-19T09:53:54;4.13;;;3.80;;
5060;SDS011;2549;52.128;21.068;2023-06-19T09:56:25;5.77;;;3.60;;
5060;SDS011;2549;52.128;21.068;2023-06-19T09:58:54;4.83;;;4.13;;
5060;SDS011;2549;52.128;21.068;2023-06-19T10:01:27;3.97;;;3.57;;
5060;SDS011;2549;52.128;21.068;2023-06-19T10:04:06;4.40;;;4.10;;
5060;SDS011;2549;52.128;21.068;2023-06-19T10:06:44;8.50;;;4.60;;
5060;SDS011;2549;52.128;21.068;2023-06-19T10:09:13;3.33;;;3.03;;
5060;SDS011;2549;52.128;21.068;2023-06-19T10:11:45;4.10;;;3.80;;
5060;SDS011;2549;52.128;21.068;2023-06-19T10:14:13;5.93;;;4.13;;
5060;SDS011;2549;52.128;21.068;2023-06-19T10:16:40;4.10;;;3.80;;
5060;SDS011;2549;52.128;21.068;2023-06-19T10:19:15;3.73;;;3.40;;
5060;SDS011;2549;52.128;21.068;2023-06-19T10:21:44;4.17;;;3.50;;
5060;SDS011;2549;52.128;21.068;2023-06-19T10:24:16;5.33;;;3.97;;
5060;SDS011;2549;52.128;21.068;2023-06-19T10:27:00;3.63;;;3.33;;
5060;SDS011;2549;52.128;21.068;2023-06-19T10:29:38;3.33;;;3.13;;
5060;SDS011;2549;52.128;21.068;2023-06-19T10:32:17;4.13;;;3.77;;
5060;SDS011;2549;52.128;21.068;2023-06-19T10:34:47;4.10;;;3.67;;
5060;SDS011;2549;52.128;21.068;2023-06-19T10:37:17;5.67;;;4.27;;
5060;SDS011;2549;52.128;21.068;2023-06-19T10:39:44;4.37;;;4.07;;
5060;SDS011;2549;52.128;21.068;2023-06-19T10:42:10;4.00;;;3.80;;
5060;SDS011;2549;52.128;21.068;2023-06-19T10:44:37;4.67;;;3.43;;
5060;SDS011;2549;52.128;21.068;2023-06-19T10:47:05;3.80;;;3.50;;
5060;SDS011;2549;52.128;21.068;2023-06-19T10:49:33;4.80;;;4.03;;
5060;SDS011;2549;52.128;21.068;2023-06-19T10:52:01;4.20;;;3.90;;
5060;SDS011;2549;52.128;21.068;2023-06-19T10:54:28;4.13;;;3.80;;
5060;SDS011;2549;52.128;21.068;2023-06-19T10:56:56;3.60;;;3.40;;
5060;SDS011;2549;52.128;21.068;2023-06-19T10:59:23;3.80;;;3.50;;
5060;SDS011;2549;52.128;21.068;2023-06-19T11:01:51;3.60;;;3.40;;
5060;SDS011;2549;52.128;21.068;2023-06-19T11:04:19;4.07;;;3.70;;
5060;SDS011;2549;52.128;21.068;2023-06-19T11:06:45;3.97;;;3.77;;
5060;SDS011;2549;52.128;21.068;2023-06-19T11:09:14;4.43;;;3.30;;
5060;SDS011;2549;52.128;21.068;2023-06-19T11:11:44;3.30;;;3.10;;
5060;SDS011;2549;52.128;21.068;2023-06-19T11:14:13;6.83;;;4.00;;
5060;SDS011;2549;52.128;21.068;2023-06-19T11:16:42;5.03;;;3.47;;
5060;SDS011;2549;52.128;21.068;2023-06-19T11:19:15;3.53;;;3.30;;
5060;SDS011;2549;52.128;21.068;2023-06-19T11:21:48;9.40;;;3.70;;
5060;SDS011;2549;52.128;21.068;2023-06-19T11:24:16;5.00;;;3.70;;
5060;SDS011;2549;52.128;21.068;2023-06-19T11:26:45;4.30;;;3.83;;
5060;SDS011;2549;52.128;21.068;2023-06-19T11:29:18;6.83;;;4.30;;
5060;SDS011;2549;52.128;21.068;2023-06-19T11:31:49;6.87;;;3.77;;
5060;SDS011;2549;52.128;21.068;2023-06-19T11:34:17;4.27;;;3.93;;
5060;SDS011;2549;52.128;21.068;2023-06-19T11:36:49;4.23;;;3.83;;
5060;SDS011;2549;52.128;21.068;2023-06-19T11:39:16;4.10;;;3.70;;
5060;SDS011;2549;52.128;21.068;2023-06-19T11:41:44;4.07;;;3.63;;
5060;SDS011;2549;52.128;21.068;2023-06-19T11:44:10;3.10;;;3.00;;
5060;SDS011;2549;52.128;21.068;2023-06-19T11:46:37;3.63;;;3.33;;
5060;SDS011;2549;52.128;21.068;2023-06-19T11:51:38;2.97;;;2.80;;
5060;SDS011;2549;52.128;21.068;2023-06-19T11:54:06;4.10;;;3.83;;
5060;SDS011;2549;52.128;21.068;2023-06-19T11:56:38;4.43;;;3.53;;
5060;SDS011;2549;52.128;21.068;2023-06-19T11:59:05;3.90;;;3.53;;
5060;SDS011;2549;52.128;21.068;2023-06-19T12:01:33;3.63;;;3.30;;
5060;SDS011;2549;52.128;21.068;2023-06-19T12:04:01;3.50;;;3.20;;
5060;SDS011;2549;52.128;21.068;2023-06-19T12:06:29;3.90;;;3.30;;
5060;SDS011;2549;52.128;21.068;2023-06-19T12:08:56;3.53;;;3.33;;
5060;SDS011;2549;52.128;21.068;2023-06-19T12:11:23;4.13;;;3.40;;
5060;SDS011;2549;52.128;21.068;2023-06-19T12:13:51;3.30;;;3.10;;
5060;SDS011;2549;52.128;21.068;2023-06-19T12:16:19;3.33;;;3.03;;
5060;SDS011;2549;52.128;21.068;2023-06-19T12:18:46;4.60;;;4.23;;
5060;SDS011;2549;52.128;21.068;2023-06-19T12:21:13;4.10;;;3.80;;
5060;SDS011;2549;52.128;21.068;2023-06-19T12:23:59;4.63;;;3.87;;
5060;SDS011;2549;52.128;21.068;2023-06-19T12:26:26;3.53;;;3.33;;
5060;SDS011;2549;52.128;21.068;2023-06-19T12:28:54;4.03;;;3.73;;
5060;SDS011;2549;52.128;21.068;2023-06-19T12:31:21;4.13;;;3.83;;
5060;SDS011;2549;52.128;21.068;2023-06-19T12:33:48;3.30;;;3.10;;
5060;SDS011;2549;52.128;21.068;2023-06-19T12:36:15;3.87;;;3.57;;
5060;SDS011;2549;52.128;21.068;2023-06-19T12:38:42;3.80;;;3.50;;
5060;SDS011;2549;52.128;21.068;2023-06-19T12:41:08;5.20;;;4.27;;
5060;SDS011;2549;52.128;21.068;2023-06-19T12:43:36;3.90;;;3.60;;
5060;SDS011;2549;52.128;21.068;2023-06-19T12:46:03;3.60;;;3.37;;
5060;SDS011;2549;52.128;21.068;2023-06-19T12:48:30;4.90;;;4.07;;
5060;SDS011;2549;52.128;21.068;2023-06-19T12:50:57;4.40;;;4.00;;
5060;SDS011;2549;52.128;21.068;2023-06-19T12:53:25;6.37;;;3.40;;
5060;SDS011;2549;52.128;21.068;2023-06-19T12:55:56;4.10;;;3.80;;
5060;SDS011;2549;52.128;21.068;2023-06-19T12:58:29;5.23;;;3.13;;
5060;SDS011;2549;52.128;21.068;2023-06-19T13:00:56;3.67;;;3.47;;
5060;SDS011;2549;52.128;21.068;2023-06-19T13:03:23;3.67;;;3.47;;
5060;SDS011;2549;52.128;21.068;2023-06-19T13:05:50;10.53;;;3.60;;
5060;SDS011;2549;52.128;21.068;2023-06-19T13:08:17;3.47;;;3.27;;
5060;SDS011;2549;52.128;21.068;2023-06-19T13:10:44;3.77;;;3.47;;
5060;SDS011;2549;52.128;21.068;2023-06-19T13:13:11;3.93;;;3.67;;
5060;SDS011;2549;52.128;21.068;2023-06-19T13:15:39;5.63;;;3.90;;
5060;SDS011;2549;52.128;21.068;2023-06-19T13:18:06;3.63;;;3.13;;
5060;SDS011;2549;52.128;21.068;2023-06-19T13:20:33;3.50;;;3.30;;
5060;SDS011;2549;52.128;21.068;2023-06-19T13:23:01;3.90;;;3.60;;
5060;SDS011;2549;52.128;21.068;2023-06-19T13:25:28;3.60;;;3.40;;
5060;SDS011;2549;52.128;21.068;2023-06-19T13:27:55;4.03;;;3.60;;
5060;SDS011;2549;52.128;21.068;2023-06-19T13:30:22;3.87;;;3.67;;
5060;SDS011;2549;52.128;21.068;2023-06-19T13:32:49;3.33;;;3.03;;
5060;SDS011;2549;52.128;21.068;2023-06-19T13:35:16;3.10;;;2.90;;
5060;SDS011;2549;52.128;21.068;2023-06-19T13:37:43;3.20;;;2.93;;
5060;SDS011;2549;52.128;21.068;2023-06-19T13:40:10;3.23;;;3.00;;
5060;SDS011;2549;52.128;21.068;2023-06-19T13:42:37;5.37;;;2.77;;
5060;SDS011;2549;52.128;21.068;2023-06-19T13:45:05;3.80;;;3.20;;
5060;SDS011;2549;52.128;21.068;2023-06-19T13:47:32;3.40;;;3.20;;
5060;SDS011;2549;52.128;21.068;2023-06-19T13:49:59;3.20;;;3.00;;
5060;SDS011;2549;52.128;21.068;2023-06-19T13:52:26;8.30;;;3.20;;
5060;SDS011;2549;52.128;21.068;2023-06-19T13:54:54;3.17;;;2.97;;
5060;SDS011;2549;52.128;21.068;2023-06-19T13:57:21;2.87;;;2.67;;
5060;SDS011;2549;52.128;21.068;2023-06-19T13:59:48;2.53;;;2.43;;
5060;SDS011;2549;52.128;21.068;2023-06-19T14:02:15;3.27;;;3.17;;
5060;SDS011;2549;52.128;21.068;2023-06-19T14:04:43;3.70;;;3.40;;
5060;SDS011;2549;52.128;21.068;2023-06-19T14:07:09;3.77;;;3.47;;
5060;SDS011;2549;52.128;21.068;2023-06-19T14:09:37;3.40;;;3.10;;
5060;SDS011;2549;52.128;21.068;2023-06-19T14:12:05;3.80;;;3.50;;
5060;SDS011;2549;52.128;21.068;2023-06-19T14:14:32;4.83;;;2.70;;
5060;SDS011;2549;52.128;21.068;2023-06-19T14:16:59;3.40;;;3.20;;
5060;SDS011;2549;52.128;21.068;2023-06-19T14:19:26;3.77;;;3.07;;
5060;SDS011;2549;52.128;21.068;2023-06-19T14:21:55;4.73;;;3.53;;
5060;SDS011;2549;52.128;21.068;2023-06-19T14:24:24;3.53;;;3.30;;
5060;SDS011;2549;52.128;21.068;2023-06-19T14:26:51;3.00;;;2.80;;
5060;SDS011;2549;52.128;21.068;2023-06-19T14:29:18;3.33;;;3.03;;
5060;SDS011;2549;52.128;21.068;2023-06-19T14:31:46;3.20;;;3.00;;
5060;SDS011;2549;52.128;21.068;2023-06-19T14:34:13;7.90;;;3.23;;
5060;SDS011;2549;52.128;21.068;2023-06-19T14:36:40;5.20;;;3.30;;
5060;SDS011;2549;52.128;21.068;2023-06-19T14:39:07;3.40;;;3.13;;
5060;SDS011;2549;52.128;21.068;2023-06-19T14:41:34;3.20;;;3.00;;
5060;SDS011;2549;52.128;21.068;2023-06-19T14:44:01;4.23;;;3.30;;
5060;SDS011;2549;52.128;21.068;2023-06-19T14:46:28;2.47;;;2.37;;
5060;SDS011;2549;52.128;21.068;2023-06-19T14:49:09;3.23;;;2.90;;
5060;SDS011;2549;52.128;21.068;2023-06-19T14:51:39;3.57;;;3.27;;
5060;SDS011;2549;52.128;21.068;2023-06-19T14:54:07;3.17;;;2.97;;
5060;SDS011;2549;52.128;21.068;2023-06-19T14:56:34;3.10;;;2.90;;
5060;SDS011;2549;52.128;21.068;2023-06-19T14:59:01;3.83;;;3.53;;
5060;SDS011;2549;52.128;21.068;2023-06-19T15:01:29;3.20;;;3.00;;
5060;SDS011;2549;52.128;21.068;2023-06-19T15:03:56;3.47;;;3.27;;
5060;SDS011;2549;52.128;21.068;2023-06-19T15:06:23;2.47;;;2.27;;
5060;SDS011;2549;52.128;21.068;2023-06-19T15:08:51;2.80;;;2.70;;
5060;SDS011;2549;52.128;21.068;2023-06-19T15:11:18;3.53;;;3.23;;